• Join FlightAware (Why Join?)
  • Login
  • US Flag 
06:00PM EDT


 

Airport Tracker/Info


-or-


 

Live Flight TrackerFlight Track Log ✈ JUS205 ✈ 25-Apr-2013 ✈ KYIP - MMMY / MTY

Flight Track Log - Related Links

Times and Time Zones

All times are in EDT time to prevent confusion due to time zone crossing. See the JUS205 flight status page for this flight to view local times or setup timezone preferences in your user account.

Time Position Orientation Groundspeed Altitude Reporting Facility
EDT Latitude Longitude Course Direction KTS MPH feet Rate Location/Type
09:23PM 42.2239 -83.5442 227° Southwest 147 169 1,600  Level Cleveland Center
09:24PM 42.1958 -83.5850 227° Southwest 218 251 3,200 1,380 Climbing Cleveland Center
09:25PM 42.1469 -83.6219 209° Southwest 213 245 4,000 360 Climbing Cleveland Center
09:26PM 42.1500 -83.6583 276° West 187 215 3,700 -900 Descending Cleveland Center
09:26PM 42.1750 -83.6681 344° North 191 220 3,100 -1,020 Descending Cleveland Center
09:27PM 42.2003 -83.6525 25° Northeast 204 235 2,700 -840 Descending Cleveland Center
09:27PM 42.2156 -83.6281 50° Northeast 191 220 2,300 -600 Descending Cleveland Center
09:28PM 42.2500 -83.5875 41° Northeast 158 182 1,800 -300 Descending Cleveland Center
09:29PM 42.2842 -83.5528 37° Northeast 148 170 1,800 -180 Level Cleveland Center
09:30PM 42.2858 -83.4967 88° East 168 193 1,500 -480 Descending Cleveland Center
09:31PM 42.2542 -83.5092 196° South 135 155 900 -600 Descending Cleveland Center
09:33PM 42.1567 -83.6399 225° Southwest  Level Estimated
09:40PM 41.6614 -84.2955 225° Southwest  Level Estimated
09:41PM 41.5903 -84.3883 224° Southwest  Level Estimated
09:42PM 41.5192 -84.4809 224° Southwest  Level Estimated
09:43PM 41.4480 -84.5733 224° Southwest  Level Estimated
09:44PM 41.3767 -84.6656 224° Southwest  Level Estimated
09:45PM 41.3053 -84.7576 224° Southwest  Level Estimated
09:46PM 41.2339 -84.8494 224° Southwest  Level Estimated
09:47PM 41.1624 -84.9410 224° Southwest  Level Estimated
09:48PM 41.0908 -85.0324 224° Southwest  Level Estimated
09:49PM 41.0191 -85.1236 224° Southwest  Level Estimated
09:50PM 40.9474 -85.2146 224° Southwest  Level Estimated
09:51PM 40.8756 -85.3054 224° Southwest  Level Estimated
09:52PM 40.8038 -85.3960 224° Southwest  Level Estimated
09:53PM 40.7318 -85.4865 224° Southwest  Level Estimated
09:54PM 40.6598 -85.5767 224° Southwest  Level Estimated
09:55PM 40.5877 -85.6667 224° Southwest  Level Estimated
09:56PM 40.5156 -85.7566 223° Southwest  Level Estimated
09:57PM 40.4434 -85.8462 223° Southwest  Level Estimated
09:58PM 40.3711 -85.9357 223° Southwest  Level Estimated
09:59PM 40.2987 -86.0249 223° Southwest  Level Estimated
10:00PM 40.2263 -86.1140 223° Southwest  Level Estimated
10:01PM 40.1538 -86.2029 223° Southwest  Level Estimated
10:02PM 40.0812 -86.2915 223° Southwest  Level Estimated
10:03PM 40.0086 -86.3801 223° Southwest  Level Estimated
10:04PM 39.9359 -86.4684 223° Southwest  Level Estimated
10:05PM 39.8632 -86.5565 223° Southwest  Level Estimated
10:06PM 39.7903 -86.6444 223° Southwest  Level Estimated
10:07PM 39.7174 -86.7322 223° Southwest  Level Estimated
10:08PM 39.6445 -86.8197 223° Southwest  Level Estimated
10:09PM 39.5715 -86.9071 223° Southwest  Level Estimated
10:10PM 39.4984 -86.9943 223° Southwest  Level Estimated
10:11PM 39.4252 -87.0813 223° Southwest  Level Estimated
10:12PM 39.3520 -87.1682 223° Southwest  Level Estimated
10:13PM 39.2787 -87.2548 222° Southwest  Level Estimated
10:14PM 39.2054 -87.3413 222° Southwest  Level Estimated
10:15PM 39.1320 -87.4276 222° Southwest  Level Estimated
10:16PM 39.0585 -87.5137 222° Southwest  Level Estimated
10:17PM 38.9850 -87.5996 222° Southwest  Level Estimated
10:18PM 38.9114 -87.6854 222° Southwest  Level Estimated
10:19PM 38.8377 -87.7709 222° Southwest  Level Estimated
10:20PM 38.7640 -87.8563 222° Southwest  Level Estimated
10:21PM 38.6902 -87.9416 222° Southwest  Level Estimated
10:22PM 38.6163 -88.0266 222° Southwest  Level Estimated
10:23PM 38.5424 -88.1115 222° Southwest  Level Estimated
10:24PM 38.4684 -88.1962 222° Southwest  Level Estimated
10:25PM 38.3944 -88.2807 222° Southwest  Level Estimated
10:26PM 38.3203 -88.3650 222° Southwest  Level Estimated
10:27PM 38.2462 -88.4492 222° Southwest  Level Estimated
10:28PM 38.1720 -88.5332 222° Southwest  Level Estimated
10:29PM 38.0977 -88.6170 222° Southwest  Level Estimated
10:30PM 38.0234 -88.7007 222° Southwest  Level Estimated
10:31PM 37.9490 -88.7842 222° Southwest  Level Estimated
10:32PM 37.8745 -88.8675 221° Southwest  Level Estimated
10:33PM 37.8000 -88.9507 221° Southwest  Level Estimated
10:34PM 37.7254 -89.0337 221° Southwest  Level Estimated
10:35PM 37.6508 -89.1165 221° Southwest  Level Estimated
10:36PM 37.5761 -89.1991 221° Southwest  Level Estimated
10:37PM 37.5014 -89.2816 221° Southwest  Level Estimated
10:38PM 37.4266 -89.3640 221° Southwest  Level Estimated
10:39PM 37.3517 -89.4461 221° Southwest  Level Estimated
10:40PM 37.2768 -89.5281 221° Southwest  Level Estimated
10:41PM 37.2019 -89.6099 221° Southwest  Level Estimated
10:42PM 37.1268 -89.6916 221° Southwest  Level Estimated
10:43PM 37.0518 -89.7731 221° Southwest  Level Estimated
10:44PM 36.9766 -89.8545 221° Southwest  Level Estimated
10:45PM 36.9014 -89.9357 221° Southwest  Level Estimated
10:46PM 36.8262 -90.0167 221° Southwest  Level Estimated
10:47PM 36.7509 -90.0976 221° Southwest  Level Estimated
10:48PM 36.6755 -90.1783 221° Southwest  Level Estimated
10:49PM 36.6001 -90.2588 221° Southwest  Level Estimated
10:50PM 36.5247 -90.3392 221° Southwest  Level Estimated
10:51PM 36.4491 -90.4194 221° Southwest  Level Estimated
10:52PM 36.3736 -90.4995 220° Southwest  Level Estimated
10:53PM 36.2979 -90.5795 220° Southwest  Level Estimated
10:54PM 36.2223 -90.6592 220° Southwest  Level Estimated
10:55PM 36.1465 -90.7389 220° Southwest  Level Estimated
10:56PM 36.0707 -90.8183 220° Southwest  Level Estimated
10:57PM 35.9949 -90.8976 220° Southwest  Level Estimated
10:58PM 35.9190 -90.9768 220° Southwest  Level Estimated
10:59PM 35.8431 -91.0558 220° Southwest  Level Estimated
11:00PM 35.7671 -91.1346 220° Southwest  Level Estimated
11:01PM 35.6910 -91.2133 220° Southwest  Level Estimated
11:02PM 35.6149 -91.2919 220° Southwest  Level Estimated
11:03PM 35.5388 -91.3703 220° Southwest  Level Estimated
11:04PM 35.4626 -91.4485 220° Southwest  Level Estimated
11:05PM 35.3863 -91.5267 220° Southwest  Level Estimated
11:06PM 35.3101 -91.6046 220° Southwest  Level Estimated
11:07PM 35.2337 -91.6824 220° Southwest  Level Estimated
11:08PM 35.1573 -91.7601 220° Southwest  Level Estimated
11:09PM 35.0808 -91.8376 220° Southwest  Level Estimated
11:10PM 35.0043 -91.9150 220° Southwest  Level Estimated
11:11PM 34.9278 -91.9922 220° Southwest  Level Estimated
11:12PM 34.8512 -92.0693 220° Southwest  Level Estimated
11:13PM 34.7746 -92.1463 220° Southwest  Level Estimated
11:14PM 34.6979 -92.2231 219° Southwest  Level Estimated
11:15PM 34.6212 -92.2997 219° Southwest  Level Estimated
11:16PM 34.5444 -92.3762 219° Southwest  Level Estimated
11:17PM 34.4675 -92.4526 219° Southwest  Level Estimated
11:18PM 34.3907 -92.5289 219° Southwest  Level Estimated
11:19PM 34.3137 -92.6050 219° Southwest  Level Estimated
11:20PM 34.2368 -92.6809 219° Southwest  Level Estimated
11:21PM 34.1597 -92.7567 219° Southwest  Level Estimated
11:22PM 34.0827 -92.8324 219° Southwest  Level Estimated
11:23PM 34.0056 -92.9080 219° Southwest  Level Estimated
11:24PM 33.9284 -92.9834 219° Southwest  Level Estimated
11:25PM 33.8512 -93.0586 219° Southwest  Level Estimated
11:26PM 33.7739 -93.1338 219° Southwest  Level Estimated
11:27PM 33.6966 -93.2088 219° Southwest  Level Estimated
11:28PM 33.6193 -93.2836 219° Southwest  Level Estimated
11:29PM 33.5419 -93.3584 219° Southwest  Level Estimated
11:30PM 33.4645 -93.4329 219° Southwest  Level Estimated
11:31PM 33.3870 -93.5074 219° Southwest  Level Estimated
11:32PM 33.3095 -93.5817 219° Southwest  Level Estimated
11:33PM 33.2319 -93.6559 219° Southwest  Level Estimated
11:34PM 33.1543 -93.7300 219° Southwest  Level Estimated
11:35PM 33.0766 -93.8039 219° Southwest  Level Estimated
11:36PM 32.9989 -93.8777 219° Southwest  Level Estimated
11:37PM 32.9212 -93.9514 219° Southwest  Level Estimated
11:38PM 32.8434 -94.0249 218° Southwest  Level Estimated
11:39PM 32.7656 -94.0983 218° Southwest  Level Estimated
11:40PM 32.6877 -94.1716 218° Southwest  Level Estimated
11:41PM 32.6098 -94.2448 218° Southwest  Level Estimated
11:42PM 32.5319 -94.3178 218° Southwest  Level Estimated
11:43PM 32.4539 -94.3907 218° Southwest  Level Estimated
11:44PM 32.3758 -94.4635 218° Southwest  Level Estimated
11:45PM 32.2977 -94.5361 218° Southwest  Level Estimated
11:46PM 32.2196 -94.6087 218° Southwest  Level Estimated
11:47PM 32.1415 -94.6811 218° Southwest  Level Estimated
11:48PM 32.0633 -94.7534 218° Southwest  Level Estimated
11:49PM 31.9850 -94.8255 218° Southwest  Level Estimated
11:50PM 31.9067 -94.8976 218° Southwest  Level Estimated
11:51PM 31.8284 -94.9695 218° Southwest  Level Estimated
11:52PM 31.7500 -95.0413 218° Southwest  Level Estimated
11:53PM 31.6716 -95.1129 218° Southwest  Level Estimated
11:54PM 31.5932 -95.1845 218° Southwest  Level Estimated
11:55PM 31.5147 -95.2559 218° Southwest  Level Estimated
11:56PM 31.4361 -95.3272 218° Southwest  Level Estimated
11:57PM 31.3576 -95.3984 218° Southwest  Level Estimated
11:58PM 31.2790 -95.4695 218° Southwest  Level Estimated
11:59PM 31.2003 -95.5404 218° Southwest  Level Estimated
12:00AM 31.1217 -95.6112 218° Southwest  Level Estimated
12:01AM 31.0429 -95.6820 218° Southwest  Level Estimated
12:02AM 30.9642 -95.7525 218° Southwest  Level Estimated
12:03AM 30.8854 -95.8230 218° Southwest  Level Estimated
12:04AM 30.8065 -95.8934 217° Southwest  Level Estimated
12:05AM 30.7277 -95.9636 217° Southwest  Level Estimated
12:06AM 30.6488 -96.0338 217° Southwest  Level Estimated
12:07AM 30.5698 -96.1038 217° Southwest  Level Estimated
12:08AM 30.4908 -96.1737 217° Southwest  Level Estimated
12:09AM 30.4118 -96.2435 217° Southwest  Level Estimated
12:10AM 30.3327 -96.3132 217° Southwest  Level Estimated
12:11AM 30.2536 -96.3827 217° Southwest  Level Estimated
12:12AM 30.1745 -96.4522 217° Southwest  Level Estimated
12:13AM 30.0953 -96.5215 217° Southwest  Level Estimated
12:14AM 30.0161 -96.5908 217° Southwest  Level Estimated
12:15AM 29.9369 -96.6599 217° Southwest  Level Estimated
12:16AM 29.8576 -96.7289 217° Southwest  Level Estimated
12:17AM 29.7783 -96.7978 217° Southwest  Level Estimated
12:18AM 29.6989 -96.8666 217° Southwest  Level Estimated
12:19AM 29.6195 -96.9353 217° Southwest  Level Estimated
12:20AM 29.5401 -97.0038 217° Southwest  Level Estimated
12:21AM 29.4607 -97.0723 217° Southwest  Level Estimated
12:22AM 29.3812 -97.1407 217° Southwest  Level Estimated
12:23AM 29.3016 -97.2089 217° Southwest  Level Estimated
12:24AM 29.2221 -97.2771 217° Southwest  Level Estimated
12:25AM 29.1425 -97.3451 217° Southwest  Level Estimated
12:26AM 29.0629 -97.4130 217° Southwest  Level Estimated
12:27AM 28.9832 -97.4809 217° Southwest  Level Estimated
12:28AM 28.9035 -97.5486 217° Southwest  Level Estimated
12:29AM 28.8238 -97.6162 217° Southwest  Level Estimated
12:30AM 28.7440 -97.6837 217° Southwest  Level Estimated
12:31AM 28.6642 -97.7512 217° Southwest  Level Estimated
12:32AM 28.5844 -97.8185 217° Southwest  Level Estimated
12:33AM 28.5045 -97.8857 216° Southwest  Level Estimated
12:34AM 28.4246 -97.9528 216° Southwest  Level Estimated
12:35AM 28.3447 -98.0198 216° Southwest  Level Estimated
12:36AM 28.2647 -98.0867 216° Southwest  Level Estimated
12:37AM 28.1847 -98.1535 216° Southwest  Level Estimated
12:38AM 28.1047 -98.2202 216° Southwest  Level Estimated
12:39AM 28.0246 -98.2868 216° Southwest  Level Estimated
12:40AM 27.9445 -98.3534 216° Southwest  Level Estimated
12:41AM 27.8644 -98.4198 216° Southwest  Level Estimated
12:42AM 27.7842 -98.4861 216° Southwest  Level Estimated
12:43AM 27.7040 -98.5523 216° Southwest  Level Estimated
12:44AM 27.6238 -98.6184 216° Southwest  Level Estimated
12:45AM 27.5436 -98.6844 216° Southwest  Level Estimated
12:46AM 27.4633 -98.7504 216° Southwest  Level Estimated
12:47AM 27.3830 -98.8162 216° Southwest  Level Estimated
12:48AM 27.3026 -98.8819 216° Southwest  Level Estimated
12:49AM 27.2222 -98.9476 216° Southwest  Level Estimated
12:50AM 27.1418 -99.0131 216° Southwest  Level Estimated
12:51AM 27.0614 -99.0786 216° Southwest  Level Estimated
12:52AM 26.9809 -99.1439 216° Southwest  Level Estimated
12:53AM 26.9004 -99.2092 216° Southwest  Level Estimated
12:54AM 26.8199 -99.2743 216° Southwest  Level Estimated
12:55AM 26.7393 -99.3394 216° Southwest  Level Estimated
12:56AM 26.6588 -99.4044 216° Southwest  Level Estimated
12:57AM 26.5781 -99.4693 216° Southwest  Level Estimated
12:58AM 26.4975 -99.5341 216° Southwest  Level Estimated
12:59AM 26.4168 -99.5988 216° Southwest  Level Estimated
01:00AM 26.3361 -99.6634 216° Southwest  Level Estimated
01:01AM 26.2554 -99.7280 216° Southwest  Level Estimated
01:02AM 26.1746 -99.7924 216° Southwest  Level Estimated
01:03AM 26.0938 -99.8568 216° Southwest  Level Estimated
01:04AM 26.0130 -99.9210 216° Southwest  Level Estimated
01:05AM 25.9322 -99.9852 216° Southwest  Level Estimated
01:06AM 25.8513 -100.0493 215° Southwest  Level Estimated
01:07AM 25.7785 -100.1069 215° Southwest  Level Estimated
01:08AM 25.7785 -100.1069 119° Southeast  Level Estimated
01:09AM 25.7785 -100.1069 119° Southeast  Level Estimated
01:10AM 25.7785 -100.1069 119° Southeast  Level Estimated
01:11AM 25.7785 -100.1069 119° Southeast  Level Estimated
01:12AM 25.7785 -100.1069 119° Southeast  Level Estimated
01:13AM 25.7785 -100.1069 119° Southeast  Level Estimated
01:14AM 25.7785 -100.1069 119° Southeast  Level Estimated